createdAt,value
2018-09-26T00:00:02.924Z,10.80
2018-09-26T00:02:36.327Z,10.80
2018-09-26T00:05:13.244Z,10.80
2018-09-26T00:07:47.899Z,10.80
2018-09-26T00:10:20.148Z,10.90
2018-09-26T00:12:54.985Z,10.80
2018-09-26T00:15:25.241Z,10.90
2018-09-26T00:17:57.333Z,10.80
2018-09-26T00:23:31.651Z,10.80
2018-09-26T00:26:02.991Z,10.70
2018-09-26T00:28:35.056Z,10.60
2018-09-26T00:31:06.562Z,10.50
2018-09-26T00:33:37.832Z,10.50
2018-09-26T00:36:12.369Z,10.50
2018-09-26T00:38:44.739Z,10.40
2018-09-26T00:41:16.927Z,10.40
2018-09-26T00:43:47.548Z,10.40
2018-09-26T00:46:20.291Z,10.30
2018-09-26T00:48:53.070Z,10.30
2018-09-26T00:51:25.854Z,10.30
2018-09-26T00:54:02.710Z,10.20
2018-09-26T00:56:35.682Z,10.20
2018-09-26T00:59:10.294Z,10.10
2018-09-26T01:01:44.408Z,10.10
2018-09-26T01:04:16.717Z,10.00
2018-09-26T01:06:49.736Z,10.20
2018-09-26T01:09:22.226Z,10.00
2018-09-26T01:11:58.793Z,9.90
2018-09-26T01:14:28.014Z,9.90
2018-09-26T01:16:58.735Z,9.80
2018-09-26T01:19:30.205Z,9.80
2018-09-26T01:22:00.683Z,9.70
2018-09-26T01:24:34.323Z,9.70
2018-09-26T01:27:09.049Z,9.60
2018-09-26T01:29:41.571Z,9.60
2018-09-26T01:32:15.364Z,9.60
2018-09-26T01:34:47.097Z,9.50
2018-09-26T01:37:19.533Z,9.50
2018-09-26T01:39:53.971Z,9.50
2018-09-26T01:42:27.416Z,9.50
2018-09-26T01:44:59.329Z,9.50
2018-09-26T01:47:33.977Z,9.40
2018-09-26T01:50:09.397Z,9.40
2018-09-26T01:52:38.659Z,9.40
2018-09-26T01:55:15.198Z,9.40
2018-09-26T01:57:47.253Z,9.30
2018-09-26T02:00:20.756Z,9.30
2018-09-26T02:02:54.126Z,9.20
2018-09-26T02:05:28.547Z,9.20
2018-09-26T02:07:58.841Z,9.20
2018-09-26T02:10:30.929Z,9.10
2018-09-26T02:13:00.703Z,9.10
2018-09-26T02:15:31.688Z,9.10
2018-09-26T02:18:02.867Z,9.00
2018-09-26T02:20:32.229Z,9.00
2018-09-26T02:23:12.288Z,8.90
2018-09-26T02:25:43.303Z,8.90
2018-09-26T02:28:17.145Z,8.80
2018-09-26T02:30:49.345Z,8.80
2018-09-26T02:33:25.382Z,8.80
2018-09-26T02:35:59.684Z,8.70
2018-09-26T02:38:29.855Z,8.70
2018-09-26T02:40:59.142Z,8.70
2018-09-26T02:43:32.671Z,8.60
2018-09-26T02:46:07.474Z,8.60
2018-09-26T02:48:45.679Z,8.60
2018-09-26T02:51:19.477Z,8.60
2018-09-26T02:53:50.702Z,8.60
2018-09-26T02:56:24.697Z,8.60
2018-09-26T02:58:58.683Z,8.50
2018-09-26T03:01:29.834Z,8.50
2018-09-26T03:04:00.383Z,8.50
2018-09-26T03:06:32.069Z,8.50
2018-09-26T03:09:05.300Z,8.40
2018-09-26T03:11:41.425Z,8.40
2018-09-26T03:14:13.888Z,8.40
2018-09-26T03:16:49.164Z,8.40
2018-09-26T03:19:23.815Z,8.30
2018-09-26T03:21:57.431Z,8.30
2018-09-26T03:24:28.759Z,8.30
2018-09-26T03:26:59.863Z,8.30
2018-09-26T03:29:33.210Z,8.30
2018-09-26T03:32:03.131Z,8.30
2018-09-26T03:34:33.156Z,8.30
2018-09-26T03:37:03.315Z,8.30
2018-09-26T03:39:32.674Z,8.30
2018-09-26T03:42:02.276Z,8.20
2018-09-26T03:44:31.601Z,8.20
2018-09-26T03:47:00.654Z,8.20
2018-09-26T03:49:29.989Z,8.20
2018-09-26T03:51:59.264Z,8.20
2018-09-26T03:54:28.592Z,8.20
2018-09-26T03:56:58.569Z,8.20
2018-09-26T03:59:27.590Z,8.20
2018-09-26T04:01:56.938Z,8.20
2018-09-26T04:04:26.055Z,8.20
2018-09-26T04:06:55.146Z,8.20
2018-09-26T04:09:24.241Z,8.10
2018-09-26T04:11:53.294Z,8.20
2018-09-26T04:14:22.905Z,8.10
2018-09-26T04:16:52.849Z,8.10
2018-09-26T04:19:21.904Z,8.20
2018-09-26T04:21:51.065Z,8.20
2018-09-26T04:24:21.526Z,8.10
2018-09-26T04:26:51.012Z,8.10
2018-09-26T04:29:20.211Z,8.10
2018-09-26T04:31:49.997Z,8.10
2018-09-26T04:34:19.361Z,8.10
2018-09-26T04:36:48.909Z,8.10
2018-09-26T04:39:18.680Z,8.10
2018-09-26T04:41:48.078Z,8.10
2018-09-26T04:44:17.485Z,8.10
2018-09-26T04:46:47.227Z,8.10
2018-09-26T04:49:16.918Z,8.10
2018-09-26T04:51:46.863Z,8.10
2018-09-26T04:54:16.698Z,8.10
2018-09-26T04:56:46.152Z,8.20
2018-09-26T04:59:15.857Z,8.10
2018-09-26T05:01:46.123Z,8.10
2018-09-26T05:04:15.553Z,8.10
2018-09-26T05:06:45.151Z,8.10
2018-09-26T05:09:14.688Z,8.10
2018-09-26T05:11:44.316Z,8.20
2018-09-26T05:14:13.757Z,8.20
2018-09-26T05:16:43.441Z,8.20
2018-09-26T05:19:13.023Z,8.20
2018-09-26T05:21:43.544Z,8.20
2018-09-26T05:24:12.835Z,8.20
2018-09-26T05:26:42.985Z,8.20
2018-09-26T05:29:12.456Z,8.20
2018-09-26T05:31:41.864Z,8.20
2018-09-26T05:34:12.093Z,8.20
2018-09-26T05:36:42.765Z,8.30
2018-09-26T05:39:12.975Z,8.30
2018-09-26T05:41:42.853Z,8.30
2018-09-26T05:44:12.671Z,8.30
2018-09-26T05:46:42.402Z,8.30
2018-09-26T05:49:12.339Z,8.30
2018-09-26T05:51:42.258Z,8.30
2018-09-26T05:54:12.551Z,8.30
2018-09-26T05:56:42.176Z,8.30
2018-09-26T05:59:11.622Z,8.30
2018-09-26T06:01:41.438Z,8.30
2018-09-26T06:04:11.365Z,8.30
2018-09-26T06:06:40.983Z,8.40
2018-09-26T06:09:12.526Z,8.40
2018-09-26T06:11:42.634Z,8.40
2018-09-26T06:14:12.908Z,8.40
2018-09-26T06:16:42.337Z,8.40
2018-09-26T06:19:12.574Z,8.50
2018-09-26T06:21:42.649Z,8.70
2018-09-26T06:24:12.658Z,8.60
2018-09-26T06:26:42.689Z,8.70
2018-09-26T06:29:13.143Z,8.80
2018-09-26T06:31:42.572Z,8.80
2018-09-26T06:34:12.227Z,9.00
2018-09-26T06:36:41.543Z,9.00
2018-09-26T06:39:12.525Z,9.20
2018-09-26T06:41:42.501Z,9.30
2018-09-26T06:44:12.297Z,9.40
2018-09-26T06:46:41.882Z,9.50
2018-09-26T06:49:12.128Z,9.60
2018-09-26T06:51:42.221Z,9.70
2018-09-26T06:54:11.859Z,9.80
2018-09-26T06:56:41.556Z,9.90
2018-09-26T06:59:11.372Z,10.00
2018-09-26T07:04:41.785Z,10.30
2018-09-26T07:07:11.582Z,10.50
2018-09-26T07:09:40.990Z,10.60
2018-09-26T07:12:11.087Z,10.80
2018-09-26T07:14:41.653Z,10.90
2018-09-26T07:17:11.385Z,11.10
2018-09-26T07:19:40.736Z,11.20
2018-09-26T07:22:10.189Z,11.40
2018-09-26T07:24:39.477Z,11.40
2018-09-26T07:27:08.914Z,11.50
2018-09-26T07:29:38.163Z,11.60
2018-09-26T07:32:07.748Z,11.70
2018-09-26T07:34:39.700Z,11.80
2018-09-26T07:37:09.556Z,12.00
2018-09-26T07:39:40.293Z,12.20
2018-09-26T07:42:15.750Z,12.40
2018-09-26T07:44:45.628Z,12.70
2018-09-26T07:47:15.361Z,12.90
2018-09-26T07:49:45.435Z,13.20
2018-09-26T07:52:15.258Z,13.40
2018-09-26T07:54:44.979Z,13.70
2018-09-26T07:57:14.190Z,14.10
2018-09-26T07:59:44.657Z,14.50
2018-09-26T08:02:14.209Z,15.00
2018-09-26T08:04:44.107Z,15.50
2018-09-26T08:07:14.142Z,16.00
2018-09-26T08:09:43.774Z,16.40
2018-09-26T08:12:13.449Z,16.80
2018-09-26T08:14:43.018Z,17.20
2018-09-26T08:17:12.544Z,17.60
2018-09-26T08:19:41.892Z,17.90
2018-09-26T08:22:11.367Z,18.20
2018-09-26T08:24:40.725Z,18.50
2018-09-26T08:27:10.143Z,18.70
2018-09-26T08:29:39.486Z,18.90
2018-09-26T08:32:09.518Z,19.10
2018-09-26T08:34:38.975Z,19.20
2018-09-26T08:37:08.568Z,19.30
2018-09-26T08:39:37.795Z,19.50
2018-09-26T08:42:07.185Z,19.60
2018-09-26T08:44:36.678Z,19.80
2018-09-26T08:47:06.246Z,19.90
2018-09-26T08:49:35.482Z,20.00
2018-09-26T08:52:04.757Z,20.00
2018-09-26T08:54:34.049Z,20.00
2018-09-26T08:57:03.212Z,19.90
2018-09-26T08:59:32.789Z,19.80
2018-09-26T09:02:02.097Z,19.70
2018-09-26T09:04:31.587Z,19.60
2018-09-26T09:07:00.894Z,19.50
2018-09-26T09:09:30.147Z,19.50
2018-09-26T09:11:59.721Z,19.60
2018-09-26T09:14:29.379Z,19.70
2018-09-26T09:16:58.695Z,19.90
2018-09-26T09:19:28.119Z,20.20
2018-09-26T09:21:57.516Z,20.40
2018-09-26T09:24:26.826Z,20.70
2018-09-26T09:26:56.235Z,21.00
2018-09-26T09:29:25.745Z,21.30
2018-09-26T09:31:55.451Z,21.60
2018-09-26T09:34:24.756Z,22.00
2018-09-26T09:36:53.974Z,22.30
2018-09-26T09:39:23.247Z,22.60
2018-09-26T09:41:53.005Z,22.90
2018-09-26T09:44:23.230Z,23.20
2018-09-26T09:46:53.061Z,23.40
2018-09-26T09:49:22.490Z,23.70
2018-09-26T09:51:51.945Z,23.90
2018-09-26T09:54:21.097Z,24.00
2018-09-26T09:56:50.548Z,24.10
2018-09-26T09:59:20.073Z,24.30
2018-09-26T10:01:49.581Z,24.40
2018-09-26T10:04:19.922Z,24.50
2018-09-26T10:06:50.371Z,24.70
2018-09-26T10:09:21.012Z,24.80
2018-09-26T10:11:50.878Z,25.00
2018-09-26T10:14:20.708Z,25.10
2018-09-26T10:16:50.338Z,25.30
2018-09-26T10:19:19.836Z,25.40
2018-09-26T10:21:49.713Z,25.50
2018-09-26T10:24:20.508Z,25.60
2018-09-26T10:26:50.156Z,25.70
2018-09-26T10:29:19.809Z,25.80
2018-09-26T10:31:49.671Z,25.90
2018-09-26T10:34:20.026Z,26.10
2018-09-26T10:36:50.246Z,26.30
2018-09-26T10:39:20.086Z,26.50
2018-09-26T10:46:46.714Z,26.80
2018-09-26T10:49:16.697Z,26.70
2018-09-26T10:51:46.503Z,26.50
2018-09-26T10:54:16.056Z,26.20
2018-09-26T10:56:45.440Z,26.00
2018-09-26T10:59:16.042Z,25.80
2018-09-26T11:01:46.824Z,25.60
2018-09-26T11:04:16.482Z,25.50
2018-09-26T11:06:46.314Z,25.20
2018-09-26T11:09:15.767Z,25.00
2018-09-26T11:11:45.490Z,24.70
2018-09-26T11:14:15.259Z,24.40
2018-09-26T11:16:45.066Z,24.00
2018-09-26T11:19:14.694Z,23.70
2018-09-26T11:21:45.912Z,23.50
2018-09-26T11:24:15.260Z,23.20
2018-09-26T11:26:44.964Z,23.00
2018-09-26T11:29:14.869Z,22.80
2018-09-26T11:31:44.855Z,22.60
2018-09-26T11:34:14.655Z,22.50
2018-09-26T11:36:44.472Z,22.40
2018-09-26T11:39:15.465Z,22.40
2018-09-26T11:41:45.440Z,22.30
2018-09-26T11:44:14.979Z,22.20
2018-09-26T11:46:44.855Z,22.20
2018-09-26T11:49:15.860Z,22.20
2018-09-26T11:51:45.773Z,22.10
2018-09-26T11:54:16.668Z,22.20
2018-09-26T11:56:47.326Z,22.10
2018-09-26T11:59:17.022Z,22.10
2018-09-26T12:01:46.845Z,22.20
2018-09-26T12:04:16.987Z,22.20
2018-09-26T12:06:46.852Z,22.30
2018-09-26T12:09:16.535Z,22.30
2018-09-26T12:11:46.451Z,22.30
2018-09-26T12:14:16.267Z,22.30
2018-09-26T12:16:46.693Z,22.30
2018-09-26T12:19:16.379Z,22.30
2018-09-26T12:21:46.107Z,22.30
2018-09-26T12:24:16.234Z,22.30
2018-09-26T12:26:45.906Z,22.40
2018-09-26T12:29:15.542Z,22.50
2018-09-26T12:31:45.317Z,22.60
2018-09-26T12:34:15.046Z,22.70
2018-09-26T12:36:44.914Z,22.70
2018-09-26T12:39:14.875Z,22.80
2018-09-26T12:41:44.936Z,22.90
2018-09-26T12:44:14.988Z,22.90
2018-09-26T12:46:45.532Z,23.00
2018-09-26T12:49:15.397Z,23.00
2018-09-26T12:51:44.848Z,23.10
2018-09-26T12:54:14.611Z,23.00
2018-09-26T12:56:44.398Z,23.00
2018-09-26T12:59:14.476Z,22.90
2018-09-26T13:01:44.492Z,22.90
2018-09-26T13:04:14.098Z,22.90
2018-09-26T13:06:44.094Z,22.90
2018-09-26T13:09:13.997Z,22.90
2018-09-26T13:11:44.063Z,22.90
2018-09-26T13:14:13.775Z,23.00
2018-09-26T13:16:43.359Z,23.00
2018-09-26T13:19:14.025Z,23.10
2018-09-26T13:21:43.616Z,23.00
2018-09-26T13:24:13.267Z,23.10
2018-09-26T13:26:42.829Z,23.00
2018-09-26T13:29:12.361Z,23.10
2018-09-26T13:31:42.383Z,23.10
2018-09-26T13:34:12.411Z,23.10
2018-09-26T13:36:42.429Z,23.10
2018-09-26T13:39:12.553Z,23.10
2018-09-26T13:41:42.835Z,23.10
2018-09-26T13:44:12.525Z,23.10
2018-09-26T13:46:42.284Z,23.10
2018-09-26T13:49:12.803Z,23.10
2018-09-26T13:51:42.376Z,23.10
2018-09-26T13:54:12.333Z,23.00
2018-09-26T13:56:42.511Z,23.00
2018-09-26T13:59:12.273Z,22.90
2018-09-26T14:01:42.222Z,22.90
2018-09-26T14:04:11.912Z,22.90
2018-09-26T14:06:42.640Z,22.80
2018-09-26T14:09:13.243Z,22.80
2018-09-26T14:11:43.073Z,22.80
2018-09-26T14:14:12.615Z,22.80
2018-09-26T14:16:42.561Z,22.70
2018-09-26T14:19:12.197Z,22.70
2018-09-26T14:21:42.581Z,22.60
2018-09-26T14:24:12.356Z,22.60
2018-09-26T14:26:42.131Z,22.60
2018-09-26T14:29:11.985Z,22.60
2018-09-26T14:31:41.860Z,22.60
2018-09-26T14:34:11.522Z,22.60
2018-09-26T14:36:41.115Z,22.60
2018-09-26T14:39:11.675Z,22.60
2018-09-26T14:41:41.498Z,22.60
2018-09-26T14:44:12.047Z,22.50
2018-09-26T14:46:42.122Z,22.60
2018-09-26T14:49:11.846Z,22.50
2018-09-26T14:51:42.237Z,22.50
2018-09-26T14:54:12.006Z,22.50
2018-09-26T14:56:41.980Z,22.50
2018-09-26T14:59:11.936Z,22.50
2018-09-26T15:01:43.188Z,22.50
2018-09-26T15:04:12.977Z,22.50
2018-09-26T15:06:44.198Z,22.40
2018-09-26T15:09:14.025Z,22.40
2018-09-26T15:11:44.615Z,22.40
2018-09-26T15:14:14.331Z,22.30
2018-09-26T15:16:44.562Z,22.30
2018-09-26T15:19:15.459Z,22.30
2018-09-26T15:21:45.202Z,22.20
2018-09-26T15:24:15.213Z,22.20
2018-09-26T15:26:45.077Z,22.20
2018-09-26T15:29:15.254Z,22.10
2018-09-26T15:31:44.970Z,22.10
2018-09-26T15:34:15.640Z,22.10
2018-09-26T15:36:45.622Z,22.00
2018-09-26T15:39:20.096Z,22.00
2018-09-26T15:41:50.357Z,21.90
2018-09-26T15:44:20.446Z,21.90
2018-09-26T15:46:50.794Z,21.90
2018-09-26T15:49:20.864Z,21.80
2018-09-26T15:51:50.427Z,21.80
2018-09-26T15:54:22.618Z,21.70
2018-09-26T15:56:53.709Z,21.70
2018-09-26T15:59:23.425Z,21.70
2018-09-26T16:01:53.082Z,21.60
2018-09-26T16:04:26.617Z,21.60
2018-09-26T16:07:11.783Z,21.50
2018-09-26T16:09:42.943Z,21.50
2018-09-26T16:12:13.838Z,21.40
2018-09-26T16:14:45.878Z,21.30
2018-09-26T16:17:15.986Z,21.30
2018-09-26T16:19:46.265Z,21.20
2018-09-26T16:22:16.196Z,21.20
2018-09-26T16:24:45.868Z,21.20
2018-09-26T16:27:15.447Z,21.10
2018-09-26T16:29:45.296Z,21.00
2018-09-26T16:32:15.109Z,20.90
2018-09-26T16:34:45.919Z,20.90
2018-09-26T16:37:16.177Z,20.90
2018-09-26T16:39:48.830Z,20.80
2018-09-26T16:42:18.601Z,20.70
2018-09-26T16:44:52.251Z,20.70
2018-09-26T16:47:22.351Z,20.60
2018-09-26T16:49:53.032Z,20.50
2018-09-26T16:52:23.945Z,20.40
2018-09-26T16:54:55.745Z,20.30
2018-09-26T16:57:25.281Z,20.30
2018-09-26T16:59:54.964Z,20.10
2018-09-26T17:02:24.824Z,20.10
2018-09-26T17:04:54.068Z,19.90
2018-09-26T17:07:23.326Z,19.90
2018-09-26T17:09:53.154Z,19.80
2018-09-26T17:12:22.943Z,19.70
2018-09-26T17:14:52.746Z,19.60
2018-09-26T17:17:22.694Z,19.50
2018-09-26T17:19:54.767Z,19.40
2018-09-26T17:22:24.579Z,19.30
2018-09-26T17:24:53.956Z,19.20
2018-09-26T17:27:23.640Z,19.10
2018-09-26T17:29:54.381Z,19.00
2018-09-26T17:32:23.909Z,18.90
2018-09-26T17:34:53.927Z,18.80
2018-09-26T17:37:23.508Z,18.70
2018-09-26T17:39:53.141Z,18.60
2018-09-26T17:42:25.145Z,18.50
2018-09-26T17:44:54.773Z,18.40
2018-09-26T17:47:24.297Z,18.30
2018-09-26T17:49:54.141Z,18.20
2018-09-26T17:52:23.646Z,18.10
2018-09-26T17:54:53.425Z,18.00
2018-09-26T17:57:23.009Z,17.90
2018-09-26T18:04:50.931Z,17.70
2018-09-26T18:07:21.080Z,17.50
2018-09-26T18:09:50.815Z,17.30
2018-09-26T18:12:20.730Z,17.20
2018-09-26T18:14:51.046Z,17.10
2018-09-26T18:17:20.666Z,17.00
2018-09-26T18:19:50.456Z,16.90
2018-09-26T18:22:22.073Z,16.80
2018-09-26T18:24:51.778Z,16.70
2018-09-26T18:27:21.596Z,16.70
2018-09-26T18:29:51.455Z,16.60
2018-09-26T18:32:21.808Z,16.50
2018-09-26T18:34:51.278Z,16.40
2018-09-26T18:37:20.785Z,16.30
2018-09-26T18:39:50.120Z,16.20
2018-09-26T18:42:21.261Z,16.10
2018-09-26T18:44:55.415Z,16.00
2018-09-26T18:47:25.457Z,16.00
2018-09-26T18:50:27.633Z,15.90
2018-09-26T18:52:58.567Z,15.80
2018-09-26T18:55:31.592Z,15.70
2018-09-26T18:58:17.869Z,15.60
2018-09-26T19:01:03.691Z,15.60
2018-09-26T19:06:20.679Z,15.50
2018-09-26T19:08:51.419Z,15.40
2018-09-26T19:11:22.433Z,15.40
2018-09-26T19:14:03.202Z,15.30
2018-09-26T19:16:36.493Z,15.30
2018-09-26T19:19:12.344Z,15.20
2018-09-26T19:21:57.072Z,15.20
2018-09-26T19:24:33.516Z,15.10
2018-09-26T19:27:05.828Z,15.00
2018-09-26T19:29:38.220Z,15.00
2018-09-26T19:32:09.071Z,14.90
2018-09-26T19:34:39.722Z,14.80
2018-09-26T19:37:11.368Z,14.70
2018-09-26T19:39:45.831Z,14.70
2018-09-26T19:42:16.124Z,14.60
2018-09-26T19:44:47.146Z,14.60
2018-09-26T19:47:17.537Z,14.50
2018-09-26T19:49:49.068Z,14.50
2018-09-26T19:52:19.817Z,14.50
2018-09-26T19:54:51.736Z,14.40
2018-09-26T19:57:27.364Z,14.40
2018-09-26T19:59:58.582Z,14.30
2018-09-26T20:02:28.723Z,14.30
2018-09-26T20:04:58.712Z,14.20
2018-09-26T20:07:29.230Z,14.10
2018-09-26T20:10:05.274Z,14.10
2018-09-26T20:12:36.715Z,14.00
2018-09-26T20:15:11.064Z,14.00
2018-09-26T20:17:41.355Z,13.90
2018-09-26T20:20:10.828Z,13.80
2018-09-26T20:22:40.638Z,13.80
2018-09-26T20:25:10.507Z,13.70
2018-09-26T20:27:39.829Z,13.70
2018-09-26T20:30:09.771Z,13.70
2018-09-26T20:32:39.711Z,13.60
2018-09-26T20:35:09.957Z,13.60
2018-09-26T20:37:42.326Z,13.60
2018-09-26T20:40:12.674Z,13.60
2018-09-26T20:42:42.291Z,13.60
2018-09-26T20:45:11.773Z,13.50
2018-09-26T20:47:43.793Z,13.50
2018-09-26T20:50:14.460Z,13.40
2018-09-26T20:52:45.144Z,13.40
2018-09-26T20:55:16.225Z,13.40
2018-09-26T20:57:45.577Z,13.30
2018-09-26T21:00:16.752Z,13.30
2018-09-26T21:02:47.080Z,13.30
2018-09-26T21:05:19.121Z,13.20
2018-09-26T21:07:49.689Z,13.20
2018-09-26T21:10:33.274Z,13.10
2018-09-26T21:13:11.147Z,13.10
2018-09-26T21:15:43.820Z,13.10
2018-09-26T21:18:15.327Z,13.00
2018-09-26T21:20:44.890Z,13.00
2018-09-26T21:23:14.836Z,13.00
2018-09-26T21:25:44.445Z,13.00
2018-09-26T21:28:14.257Z,12.90
2018-09-26T21:30:43.973Z,12.90
2018-09-26T21:33:13.285Z,12.80
2018-09-26T21:35:42.917Z,12.80
2018-09-26T21:38:12.341Z,12.70
2018-09-26T21:40:42.312Z,12.70
2018-09-26T21:43:12.544Z,12.70
2018-09-26T21:45:41.871Z,12.70
2018-09-26T21:48:11.693Z,12.70
2018-09-26T21:50:41.198Z,12.60
2018-09-26T21:53:10.840Z,12.60
2018-09-26T21:55:40.860Z,12.60
2018-09-26T21:58:10.180Z,12.50
2018-09-26T22:00:43.858Z,12.50
2018-09-26T22:03:13.224Z,12.50
2018-09-26T22:05:43.370Z,12.40
2018-09-26T22:08:12.866Z,12.40
2018-09-26T22:10:42.313Z,12.40
2018-09-26T22:13:11.945Z,12.40
2018-09-26T22:15:41.306Z,12.30
2018-09-26T22:18:10.555Z,12.30
2018-09-26T22:20:39.852Z,12.30
2018-09-26T22:23:09.589Z,12.30
2018-09-26T22:25:38.862Z,12.30
2018-09-26T22:28:08.587Z,12.20
2018-09-26T22:30:37.825Z,12.20
2018-09-26T22:33:07.015Z,12.20
2018-09-26T22:35:36.241Z,12.20
2018-09-26T22:38:05.889Z,12.10
2018-09-26T22:40:35.224Z,12.10
2018-09-26T22:43:04.460Z,12.10
2018-09-26T22:45:34.362Z,12.10
2018-09-26T22:48:03.900Z,12.10
2018-09-26T22:50:33.250Z,12.10
2018-09-26T22:53:02.563Z,12.10
2018-09-26T22:55:31.725Z,12.10
2018-09-26T22:58:00.934Z,12.10
2018-09-26T23:00:30.109Z,12.10
2018-09-26T23:02:59.305Z,12.00
2018-09-26T23:05:28.817Z,12.00
2018-09-26T23:07:57.857Z,12.00
2018-09-26T23:10:27.084Z,12.30
2018-09-26T23:12:56.273Z,12.00
2018-09-26T23:15:25.497Z,12.00
2018-09-26T23:17:54.718Z,12.00
2018-09-26T23:20:24.024Z,11.90
2018-09-26T23:22:53.062Z,11.90
2018-09-26T23:25:22.220Z,11.90
2018-09-26T23:27:51.256Z,11.80
2018-09-26T23:30:20.487Z,11.80
2018-09-26T23:32:50.023Z,11.80
2018-09-26T23:35:19.234Z,11.80
2018-09-26T23:37:48.400Z,11.70
2018-09-26T23:40:17.592Z,11.70
2018-09-26T23:42:47.131Z,11.70
2018-09-26T23:45:16.539Z,11.70
2018-09-26T23:47:46.680Z,11.60
2018-09-26T23:50:16.495Z,11.60
2018-09-26T23:52:45.800Z,11.60
2018-09-26T23:55:15.003Z,11.50
2018-09-26T23:57:44.712Z,11.50
